Terminal Aerodrome Forecast
Issued by NWS

Home | Current Version | Previous Version | Text Only | Print | Product List | Glossary On
Versions: 1 2 3 4 5 6 7 8 9 10 11 12
000
FTUS43 KDVN 151100 RRA
TAFCID
TAF
KCID 151142Z 1512/1612 10008KT P6SM BKN250
     FM151500 11011G18KT P6SM BKN250
     FM152300 10006KT P6SM BKN200=

USA.gov is the U.S. government's official web portal to all federal, state and local government web resources and services.